KBPT/BPT METAR and TAF weather

Enter ICAO airport designator
Station Type Date Time Source
KBPT METAR 2019/02/23 22:53 UTC NOAA

KBPT 232253Z 31006KT 10SM -RA CLR 21/12 A2989 RMK AO2 RAB00E30B53 SLP119 P0000 T02110122


Station Type Date Time Source
KBPT Decoded METAR 2019/02/23 22:53 UTC NOAA

SOUTHEAST TEXAS RGNL AIRPORT, TX, United States (KBPT) 29-95N 094-08W 5M
Feb 23, 2019 - 05:53 PM EST / 2019.02.23 2253 UTC
Wind: from the NW (310 degrees) at 7 MPH (6 KT):0
Visibility: 10 mile(s):0
Sky conditions: clear
Weather: light rain
Precipitation last hour: A trace
Temperature: 70.0 F (21.1 C)
Dew Point: 54.0 F (12.2 C)
Relative Humidity: 56%
Pressure (altimeter): 29.89 in. Hg (1012 hPa)
ob: KBPT 232253Z 31006KT 10SM -RA CLR 21/12 A2989 RMK AO2 RAB00E30B53 SLP119 P0000 T02110122
cycle: 23

Station Type Date Time Source
KBPT TAF 2019/02/23 20:57 UTC NOAA

TAF
AMD KBPT 231954Z 2320/2418 32013KT P6SM BKN015 OVC025
FM232100 29012G20KT P6SM BKN050
FM240000 28005KT P6SM SCT250
FM241000 35008KT P6SM SKC
FM241500 01012KT P6SM SKC


Example: see airport list